Time;durP1;ratioP1;P1;durP2;ratioP2;P2;SDS_P1;SDS_P2;PMS_P1;PMS_P2;Temp;Humidity;BMP_temperature;BMP_pressure;BME280_temperature;BME280_humidity;BME280_pressure;Samples;Min_cycle;Max_cycle;Signal;HPM_P1;HPM_P2
2023/08/14 00:00:11;;;;;;;;;;;23.20;68.10;;;;;;1557935;75;1941;-58
2023/08/14 00:02:13;;;;;;;;;;;23.10;68.20;;;;;;1547036;75;739;-58
2023/08/14 00:04:15;;;;;;;;;;;23.20;68.10;;;;;;1555405;76;817;-59
2023/08/14 00:06:16;;;;;;;;;;;23.10;68.10;;;;;;1553517;75;771;-57
2023/08/14 00:08:19;;;;;;;;;;;23.20;68.00;;;;;;1561210;76;1671;-60
2023/08/14 00:10:21;;;;;;;;;;;23.10;68.10;;;;;;1559623;75;1121;-59
2023/08/14 00:12:23;;;;;;;;;;;23.20;68.00;;;;;;1559776;75;756;-59
2023/08/14 00:14:25;;;;;;;;;;;23.20;68.00;;;;;;1554359;75;719;-59
2023/08/14 00:16:27;;;;;;;;;;;23.10;68.10;;;;;;1559677;75;759;-60
2023/08/14 00:18:28;;;;;;;;;;;23.20;68.00;;;;;;1558638;75;663;-57
2023/08/14 00:20:30;;;;;;;;;;;23.20;68.00;;;;;;1559738;75;1935;-59
2023/08/14 00:22:32;;;;;;;;;;;23.10;68.10;;;;;;1557227;75;915;-59
2023/08/14 00:24:34;;;;;;;;;;;23.10;68.00;;;;;;1555404;75;731;-59
2023/08/14 00:26:36;;;;;;;;;;;23.10;68.00;;;;;;1558536;76;734;-58
2023/08/14 00:28:38;;;;;;;;;;;23.10;68.00;;;;;;1558071;76;1117;-60
2023/08/14 00:30:40;;;;;;;;;;;23.10;68.00;;;;;;1529889;76;843;-57
2023/08/14 00:32:42;;;;;;;;;;;23.20;68.00;;;;;;1566371;75;724;-58
2023/08/14 00:34:43;;;;;;;;;;;23.10;68.00;;;;;;1566078;74;1191;-59
2023/08/14 00:36:45;;;;;;;;;;;23.10;68.00;;;;;;1571407;74;710;-60
2023/08/14 00:38:47;;;;;;;;;;;23.10;67.90;;;;;;1570091;75;1144;-58
2023/08/14 00:40:51;;;;;;;;;;;23.10;67.90;;;;;;1560085;74;1935;-59
2023/08/14 00:42:53;;;;;;;;;;;23.10;67.90;;;;;;1564360;75;1854;-60
2023/08/14 00:44:54;;;;;;;;;;;23.10;67.90;;;;;;1566520;74;724;-60
2023/08/14 00:46:56;;;;;;;;;;;23.10;67.90;;;;;;1568641;75;684;-58
2023/08/14 00:48:59;;;;;;;;;;;23.20;67.90;;;;;;1568449;74;1578;-59
2023/08/14 00:51:01;;;;;;;;;;;23.10;67.80;;;;;;1559726;74;786;-58
2023/08/14 00:53:03;;;;;;;;;;;23.10;67.80;;;;;;1567715;74;802;-58
2023/08/14 00:55:07;;;;;;;;;;;23.10;67.80;;;;;;1566622;74;781;-58
2023/08/14 00:57:09;;;;;;;;;;;23.20;67.70;;;;;;1564175;74;941;-59
2023/08/14 00:59:11;;;;;;;;;;;23.10;67.70;;;;;;1563639;74;1159;-58
2023/08/14 01:01:12;;;;;;;;;;;23.10;67.60;;;;;;1565653;75;1931;-58
2023/08/14 01:03:14;;;;;;;;;;;23.10;67.60;;;;;;1569575;74;1530;-57
2023/08/14 01:05:16;;;;;;;;;;;23.20;67.60;;;;;;1566576;75;749;-59
2023/08/14 01:07:18;;;;;;;;;;;23.20;67.60;;;;;;1570337;75;694;-59
2023/08/14 01:09:20;;;;;;;;;;;23.10;67.50;;;;;;1567187;74;1093;-58
2023/08/14 01:11:26;;;;;;;;;;;23.10;67.50;;;;;;1529461;76;792;-60
2023/08/14 01:13:36;;;;;;;;;;;23.20;67.50;;;;;;1517852;76;1712;-59
2023/08/14 01:15:42;;;;;;;;;;;23.10;67.50;;;;;;1543593;75;1321;-59
2023/08/14 01:17:46;;;;;;;;;;;23.20;67.50;;;;;;1569022;75;1520;-59
2023/08/14 01:19:51;;;;;;;;;;;23.10;67.40;;;;;;1569997;75;1876;-57
2023/08/14 01:22:03;;;;;;;;;;;23.10;67.40;;;;;;1564579;74;1914;-57
2023/08/14 01:24:09;;;;;;;;;;;23.10;67.30;;;;;;1567337;75;768;-59
2023/08/14 01:26:11;;;;;;;;;;;23.10;67.30;;;;;;1569490;74;1703;-57
2023/08/14 01:28:13;;;;;;;;;;;23.10;67.30;;;;;;1569604;74;904;-58
2023/08/14 01:30:15;;;;;;;;;;;23.10;67.30;;;;;;1565475;74;1135;-58
2023/08/14 01:32:17;;;;;;;;;;;23.10;67.20;;;;;;1565083;75;1527;-58
2023/08/14 01:34:19;;;;;;;;;;;23.10;67.20;;;;;;1568159;75;768;-59
2023/08/14 01:36:25;;;;;;;;;;;23.10;67.10;;;;;;1566701;74;684;-58
2023/08/14 01:38:31;;;;;;;;;;;23.10;67.10;;;;;;1569336;75;1560;-58
2023/08/14 01:40:44;;;;;;;;;;;23.10;67.10;;;;;;1563881;74;1950;-60
2023/08/14 01:42:46;;;;;;;;;;;23.10;67.10;;;;;;1551610;75;998;-58
2023/08/14 01:44:48;;;;;;;;;;;23.10;67.00;;;;;;1568823;74;1615;-59
2023/08/14 01:46:50;;;;;;;;;;;23.10;67.20;;;;;;1570660;75;789;-57
2023/08/14 01:48:52;;;;;;;;;;;23.10;67.20;;;;;;1566097;75;1150;-57
2023/08/14 01:50:54;;;;;;;;;;;23.10;67.10;;;;;;1565126;74;704;-58
2023/08/14 01:52:56;;;;;;;;;;;23.10;67.00;;;;;;1570894;74;739;-59
2023/08/14 01:55:00;;;;;;;;;;;23.10;66.90;;;;;;1563704;74;934;-59
2023/08/14 01:57:02;;;;;;;;;;;23.10;66.90;;;;;;1571067;74;886;-58
2023/08/14 01:59:04;;;;;;;;;;;23.10;66.90;;;;;;1561832;74;1547;-59
2023/08/14 02:01:06;;;;;;;;;;;23.20;66.80;;;;;;1569970;75;1933;-57
2023/08/14 02:03:08;;;;;;;;;;;23.10;66.80;;;;;;1570198;74;800;-59
2023/08/14 02:05:10;;;;;;;;;;;23.10;66.70;;;;;;1541929;75;748;-58
2023/08/14 02:07:12;;;;;;;;;;;23.10;66.70;;;;;;1556520;76;783;-57
2023/08/14 02:09:14;;;;;;;;;;;23.10;66.70;;;;;;1552691;75;1251;-58
2023/08/14 02:11:16;;;;;;;;;;;23.10;66.60;;;;;;1555567;76;687;-59
2023/08/14 02:13:18;;;;;;;;;;;23.20;66.70;;;;;;1571448;74;1586;-59
2023/08/14 02:15:20;;;;;;;;;;;23.10;66.60;;;;;;1527845;76;707;-58
2023/08/14 02:17:22;;;;;;;;;;;23.10;66.50;;;;;;1561515;75;651;-57
2023/08/14 02:19:24;;;;;;;;;;;23.10;66.50;;;;;;1563155;75;1146;-59
2023/08/14 02:21:26;;;;;;;;;;;23.10;66.60;;;;;;1567719;74;1946;-58
2023/08/14 02:23:28;;;;;;;;;;;23.10;66.80;;;;;;1563422;74;726;-58
2023/08/14 02:25:30;;;;;;;;;;;23.10;66.90;;;;;;1560417;75;814;-58
2023/08/14 02:27:31;;;;;;;;;;;23.10;67.00;;;;;;1565795;74;1516;-58
2023/08/14 02:29:33;;;;;;;;;;;23.00;66.70;;;;;;1564102;75;1117;-58
2023/08/14 02:31:35;;;;;;;;;;;23.10;66.80;;;;;;1569753;74;800;-60
2023/08/14 02:33:37;;;;;;;;;;;23.10;66.90;;;;;;1526998;76;705;-57
2023/08/14 02:35:39;;;;;;;;;;;23.10;66.90;;;;;;1531002;76;757;-58
2023/08/14 02:37:41;;;;;;;;;;;23.00;66.80;;;;;;1568307;74;669;-58
2023/08/14 02:39:43;;;;;;;;;;;23.10;66.90;;;;;;1565756;74;1090;-59
2023/08/14 02:41:45;;;;;;;;;;;23.00;66.70;;;;;;1569844;75;1924;-58
2023/08/14 02:43:47;;;;;;;;;;;23.10;66.80;;;;;;1567685;75;743;-58
2023/08/14 02:45:49;;;;;;;;;;;23.10;66.80;;;;;;1565674;74;737;-59
2023/08/14 02:47:50;;;;;;;;;;;23.10;66.70;;;;;;1562300;74;795;-59
2023/08/14 02:49:52;;;;;;;;;;;23.10;66.70;;;;;;1571263;74;1152;-57
2023/08/14 02:51:54;;;;;;;;;;;23.00;66.50;;;;;;1564185;75;811;-59
2023/08/14 02:53:56;;;;;;;;;;;23.00;66.40;;;;;;1571070;74;709;-58
2023/08/14 02:55:58;;;;;;;;;;;23.10;66.50;;;;;;1567873;74;1532;-59
2023/08/14 02:58:00;;;;;;;;;;;23.10;66.50;;;;;;1564238;75;819;-58
2023/08/14 03:00:02;;;;;;;;;;;23.00;66.30;;;;;;1565198;74;1140;-57
2023/08/14 03:02:04;;;;;;;;;;;23.10;66.40;;;;;;1566384;74;1927;-59
2023/08/14 03:04:05;;;;;;;;;;;23.00;66.20;;;;;;1567968;74;797;-60
2023/08/14 03:06:08;;;;;;;;;;;23.10;66.30;;;;;;1568354;75;773;-58
2023/08/14 03:08:10;;;;;;;;;;;23.00;66.10;;;;;;1568660;75;761;-58
2023/08/14 03:10:12;;;;;;;;;;;23.10;66.20;;;;;;1564882;75;1307;-58
2023/08/14 03:12:14;;;;;;;;;;;23.00;66.10;;;;;;1560234;74;1075;-60
2023/08/14 03:14:16;;;;;;;;;;;23.00;66.10;;;;;;1560901;74;753;-59
2023/08/14 03:16:18;;;;;;;;;;;23.00;66.10;;;;;;1569204;74;764;-59
2023/08/14 03:18:20;;;;;;;;;;;23.10;66.20;;;;;;1563170;75;753;-58
2023/08/14 03:20:22;;;;;;;;;;;23.10;66.10;;;;;;1566254;74;1105;-59
2023/08/14 03:22:23;;;;;;;;;;;23.00;66.00;;;;;;1566588;74;1938;-57
2023/08/14 03:24:25;;;;;;;;;;;23.10;66.10;;;;;;1562738;74;1530;-58
2023/08/14 03:26:27;;;;;;;;;;;23.10;66.20;;;;;;1569224;74;674;-59
2023/08/14 03:28:29;;;;;;;;;;;23.00;66.00;;;;;;1565186;75;812;-58
2023/08/14 03:30:31;;;;;;;;;;;23.00;66.00;;;;;;1571639;74;1168;-58
2023/08/14 03:32:33;;;;;;;;;;;23.00;66.00;;;;;;1570007;74;577;-58
2023/08/14 03:34:35;;;;;;;;;;;23.10;66.00;;;;;;1567885;75;719;-58
2023/08/14 03:36:37;;;;;;;;;;;23.10;66.10;;;;;;1565392;75;695;-58
2023/08/14 03:38:38;;;;;;;;;;;23.00;65.90;;;;;;1570530;74;1520;-58
2023/08/14 03:40:40;;;;;;;;;;;23.10;66.10;;;;;;1567883;75;710;-57
2023/08/14 03:42:42;;;;;;;;;;;23.10;66.00;;;;;;1561752;75;1935;-57
2023/08/14 03:44:44;;;;;;;;;;;23.00;65.90;;;;;;1563131;75;755;-59
2023/08/14 03:46:46;;;;;;;;;;;23.10;66.00;;;;;;1571620;74;774;-59
2023/08/14 03:48:48;;;;;;;;;;;23.00;65.90;;;;;;1569486;74;1140;-59
2023/08/14 03:50:50;;;;;;;;;;;23.10;65.90;;;;;;1568280;74;728;-59
2023/08/14 03:52:52;;;;;;;;;;;23.00;65.90;;;;;;1566696;74;1519;-58
2023/08/14 03:54:54;;;;;;;;;;;23.00;65.80;;;;;;1567985;74;820;-59
2023/08/14 03:56:56;;;;;;;;;;;23.10;65.90;;;;;;1569294;74;721;-58
2023/08/14 03:58:58;;;;;;;;;;;23.00;65.80;;;;;;1567115;74;1217;-58
2023/08/14 04:01:00;;;;;;;;;;;23.00;65.80;;;;;;1570122;74;729;-60
2023/08/14 04:03:02;;;;;;;;;;;23.00;65.90;;;;;;1567841;75;1934;-59
2023/08/14 04:05:04;;;;;;;;;;;23.10;65.90;;;;;;1568731;75;738;-59
2023/08/14 04:07:06;;;;;;;;;;;23.00;65.80;;;;;;1564377;74;1536;-57
2023/08/14 04:09:09;;;;;;;;;;;23.00;65.80;;;;;;1569534;75;1132;-59
2023/08/14 04:11:11;;;;;;;;;;;23.10;65.90;;;;;;1571498;75;707;-58
2023/08/14 04:13:13;;;;;;;;;;;23.10;66.00;;;;;;1561261;74;788;-59
2023/08/14 04:15:15;;;;;;;;;;;23.00;65.80;;;;;;1571557;74;781;-58
2023/08/14 04:17:17;;;;;;;;;;;23.00;65.90;;;;;;1564662;74;747;-59
2023/08/14 04:19:19;;;;;;;;;;;23.10;65.90;;;;;;1571074;74;1118;-59
2023/08/14 04:21:21;;;;;;;;;;;23.00;65.80;;;;;;1569519;74;1656;-57
2023/08/14 04:23:23;;;;;;;;;;;23.00;65.80;;;;;;1570945;74;1949;-58
2023/08/14 04:25:25;;;;;;;;;;;23.00;65.80;;;;;;1564582;74;746;-58
2023/08/14 04:27:27;;;;;;;;;;;23.00;65.80;;;;;;1566474;75;775;-58
2023/08/14 04:29:29;;;;;;;;;;;23.00;65.80;;;;;;1569761;74;1128;-58
2023/08/14 04:31:31;;;;;;;;;;;23.00;65.80;;;;;;1567994;74;766;-57
2023/08/14 04:33:33;;;;;;;;;;;23.00;65.80;;;;;;1555673;75;798;-58
2023/08/14 04:35:37;;;;;;;;;;;23.00;65.80;;;;;;1561142;74;793;-58
2023/08/14 04:37:38;;;;;;;;;;;23.00;65.80;;;;;;1566705;75;1710;-58
2023/08/14 04:39:40;;;;;;;;;;;23.00;65.80;;;;;;1567951;74;1144;-58
2023/08/14 04:41:42;;;;;;;;;;;23.00;65.80;;;;;;1562638;74;1937;-59
2023/08/14 04:43:44;;;;;;;;;;;23.00;65.80;;;;;;1568109;74;756;-59
2023/08/14 04:45:46;;;;;;;;;;;23.10;65.90;;;;;;1559156;75;730;-58
2023/08/14 04:47:48;;;;;;;;;;;23.00;65.80;;;;;;1571480;74;1573;-57
2023/08/14 04:49:50;;;;;;;;;;;23.00;65.80;;;;;;1563146;75;1083;-59
2023/08/14 04:51:52;;;;;;;;;;;23.00;65.80;;;;;;1566717;74;786;-57
2023/08/14 04:53:54;;;;;;;;;;;23.00;65.80;;;;;;1565943;74;762;-58
2023/08/14 04:55:56;;;;;;;;;;;23.00;65.70;;;;;;1566200;74;711;-57
2023/08/14 04:57:58;;;;;;;;;;;23.10;65.80;;;;;;1552557;74;1274;-58
2023/08/14 05:00:00;;;;;;;;;;;23.00;66.00;;;;;;1569540;75;1194;-58
2023/08/14 05:02:02;;;;;;;;;;;23.00;66.00;;;;;;1558077;74;1947;-59
2023/08/14 05:04:04;;;;;;;;;;;23.00;65.80;;;;;;1561110;74;708;-58
2023/08/14 05:06:06;;;;;;;;;;;23.00;65.70;;;;;;1565659;74;617;-58
2023/08/14 05:08:07;;;;;;;;;;;23.00;65.70;;;;;;1571816;74;747;-60
2023/08/14 05:10:09;;;;;;;;;;;23.00;65.90;;;;;;1563330;74;1134;-58
2023/08/14 05:12:11;;;;;;;;;;;23.00;65.90;;;;;;1557422;74;753;-56
2023/08/14 05:14:13;;;;;;;;;;;23.10;65.90;;;;;;1563924;74;753;-57
2023/08/14 05:16:15;;;;;;;;;;;23.00;65.70;;;;;;1565057;75;1352;-58
2023/08/14 05:18:17;;;;;;;;;;;23.00;65.70;;;;;;1560227;74;741;-57
2023/08/14 05:20:19;;;;;;;;;;;23.00;65.70;;;;;;1570933;74;1124;-59
2023/08/14 05:22:21;;;;;;;;;;;23.10;65.80;;;;;;1568951;74;1946;-59
2023/08/14 05:24:23;;;;;;;;;;;23.00;65.80;;;;;;1567734;74;788;-58
2023/08/14 05:26:25;;;;;;;;;;;23.00;65.80;;;;;;1564781;74;785;-59
2023/08/14 05:28:27;;;;;;;;;;;23.00;65.80;;;;;;1564097;75;701;-58
2023/08/14 05:30:29;;;;;;;;;;;23.00;65.70;;;;;;1565208;74;1425;-58
2023/08/14 05:32:31;;;;;;;;;;;23.00;65.70;;;;;;1567338;74;675;-58
2023/08/14 05:34:33;;;;;;;;;;;23.00;65.70;;;;;;1519395;78;797;-58
2023/08/14 05:36:35;;;;;;;;;;;23.10;65.80;;;;;;1542609;75;787;-58
2023/08/14 05:38:36;;;;;;;;;;;23.10;65.90;;;;;;1555406;75;1190;-59
2023/08/14 05:40:38;;;;;;;;;;;23.00;65.80;;;;;;1559497;74;812;-58
2023/08/14 05:42:40;;;;;;;;;;;23.10;66.00;;;;;;1565843;74;1939;-58
2023/08/14 05:44:42;;;;;;;;;;;23.00;65.90;;;;;;1567144;74;1523;-60
2023/08/14 05:46:44;;;;;;;;;;;23.00;66.00;;;;;;1565660;75;757;-57
2023/08/14 05:48:46;;;;;;;;;;;23.10;66.00;;;;;;1568889;74;1159;-57
2023/08/14 05:50:49;;;;;;;;;;;23.00;66.30;;;;;;1567712;74;759;-59
2023/08/14 05:52:51;;;;;;;;;;;23.10;66.20;;;;;;1563473;74;791;-58
2023/08/14 05:54:53;;;;;;;;;;;23.00;66.30;;;;;;1567860;74;692;-58
2023/08/14 05:56:55;;;;;;;;;;;23.10;66.30;;;;;;1568400;74;780;-58
2023/08/14 05:58:57;;;;;;;;;;;23.00;66.20;;;;;;1560348;74;1311;-59
2023/08/14 06:00:59;;;;;;;;;;;23.00;66.30;;;;;;1568739;75;780;-58
2023/08/14 06:03:01;;;;;;;;;;;23.00;66.40;;;;;;1569892;74;1937;-58
2023/08/14 06:05:03;;;;;;;;;;;23.10;66.60;;;;;;1567897;74;868;-58
2023/08/14 06:07:06;;;;;;;;;;;23.00;66.50;;;;;;1569529;74;797;-58
2023/08/14 06:09:08;;;;;;;;;;;23.00;66.60;;;;;;1569181;75;1091;-58
2023/08/14 06:11:09;;;;;;;;;;;23.00;66.70;;;;;;1566016;75;774;-57
2023/08/14 06:13:11;;;;;;;;;;;23.10;66.90;;;;;;1570297;74;1516;-55
2023/08/14 06:15:13;;;;;;;;;;;23.00;66.90;;;;;;1560606;75;772;-56
2023/08/14 06:17:15;;;;;;;;;;;23.00;67.10;;;;;;1571881;74;738;-56
2023/08/14 06:19:17;;;;;;;;;;;23.00;67.00;;;;;;1570985;75;1132;-58
2023/08/14 06:21:19;;;;;;;;;;;23.10;67.70;;;;;;1567833;75;806;-56
2023/08/14 06:23:21;;;;;;;;;;;23.00;67.30;;;;;;1567841;75;1937;-59
2023/08/14 06:25:25;;;;;;;;;;;23.00;67.30;;;;;;1571402;74;746;-58
2023/08/14 06:27:27;;;;;;;;;;;23.00;67.20;;;;;;1562497;74;1486;-57
2023/08/14 06:29:28;;;;;;;;;;;23.10;67.30;;;;;;1567398;74;1182;-58
2023/08/14 06:31:30;;;;;;;;;;;23.00;67.10;;;;;;1564617;74;683;-58
2023/08/14 06:33:32;;;;;;;;;;;23.10;67.30;;;;;;1563641;74;745;-57
2023/08/14 06:35:34;;;;;;;;;;;23.10;67.30;;;;;;1569764;74;688;-58
2023/08/14 06:37:36;;;;;;;;;;;23.00;67.20;;;;;;1567453;74;724;-58
2023/08/14 06:39:38;;;;;;;;;;;23.00;67.30;;;;;;1554713;74;1179;-57
2023/08/14 06:41:40;;;;;;;;;;;23.00;67.20;;;;;;1520179;76;1552;-59
2023/08/14 06:43:42;;;;;;;;;;;23.00;67.30;;;;;;1551510;75;1928;-57
2023/08/14 06:45:45;;;;;;;;;;;23.10;67.40;;;;;;1568128;74;693;-57
2023/08/14 06:47:47;;;;;;;;;;;23.00;67.10;;;;;;1565413;75;706;-59
2023/08/14 06:49:49;;;;;;;;;;;23.10;67.20;;;;;;1562032;74;1122;-57
2023/08/14 06:51:51;;;;;;;;;;;23.10;67.30;;;;;;1569216;75;742;-58
2023/08/14 06:53:53;;;;;;;;;;;23.00;67.20;;;;;;1563710;74;760;-57
2023/08/14 06:55:55;;;;;;;;;;;23.10;67.30;;;;;;1560893;74;1683;-59
2023/08/14 06:57:57;;;;;;;;;;;23.10;67.10;;;;;;1564764;74;724;-59
2023/08/14 07:00:00;;;;;;;;;;;23.10;67.00;;;;;;1570066;74;1156;-58
2023/08/14 07:02:02;;;;;;;;;;;23.00;66.80;;;;;;1572002;74;794;-56
2023/08/14 07:04:04;;;;;;;;;;;23.00;66.40;;;;;;1569704;74;1926;-57
2023/08/14 07:06:06;;;;;;;;;;;23.10;66.80;;;;;;1571627;75;775;-59
2023/08/14 07:08:08;;;;;;;;;;;23.00;66.70;;;;;;1566377;74;764;-57
2023/08/14 07:10:10;;;;;;;;;;;23.00;66.90;;;;;;1562603;74;1648;-58
2023/08/14 07:12:12;;;;;;;;;;;23.00;66.60;;;;;;1574237;74;698;-56
2023/08/14 07:14:14;;;;;;;;;;;23.10;66.50;;;;;;1571577;74;717;-58
2023/08/14 07:16:16;;;;;;;;;;;23.00;66.00;;;;;;1564334;75;797;-57
2023/08/14 07:18:20;;;;;;;;;;;23.00;66.10;;;;;;1570026;74;743;-58
2023/08/14 07:20:22;;;;;;;;;;;23.00;66.40;;;;;;1568648;75;1117;-59
2023/08/14 07:22:24;;;;;;;;;;;23.10;66.60;;;;;;1565500;74;1525;-59
2023/08/14 07:24:26;;;;;;;;;;;23.00;66.20;;;;;;1571502;74;1918;-56
2023/08/14 07:26:28;;;;;;;;;;;23.00;66.10;;;;;;1571623;75;743;-59
2023/08/14 07:28:30;;;;;;;;;;;23.10;66.20;;;;;;1570550;75;748;-59
2023/08/14 07:30:32;;;;;;;;;;;23.00;66.20;;;;;;1564255;74;1176;-59
2023/08/14 07:32:34;;;;;;;;;;;23.00;66.20;;;;;;1563908;74;939;-59
2023/08/14 07:34:36;;;;;;;;;;;23.10;66.30;;;;;;1571552;74;795;-56
2023/08/14 07:36:37;;;;;;;;;;;23.10;66.40;;;;;;1568412;74;1534;-57
2023/08/14 07:38:39;;;;;;;;;;;23.10;66.40;;;;;;1566876;75;1128;-56
2023/08/14 07:40:41;;;;;;;;;;;23.10;66.50;;;;;;1568009;74;719;-57
2023/08/14 07:42:43;;;;;;;;;;;23.10;66.40;;;;;;1571769;75;701;-58
2023/08/14 07:44:45;;;;;;;;;;;23.10;66.40;;;;;;1569052;74;1937;-56
2023/08/14 07:46:47;;;;;;;;;;;23.00;66.40;;;;;;1562658;74;738;-56
2023/08/14 07:48:49;;;;;;;;;;;23.10;66.40;;;;;;1567528;74;1139;-56
2023/08/14 07:50:52;;;;;;;;;;;23.10;66.50;;;;;;1568560;74;1306;-59
2023/08/14 07:52:54;;;;;;;;;;;23.10;66.50;;;;;;1569228;74;621;-59
2023/08/14 07:54:57;;;;;;;;;;;23.10;66.40;;;;;;1565253;74;776;-57
2023/08/14 07:56:58;;;;;;;;;;;23.10;66.50;;;;;;1566880;74;631;-58
2023/08/14 07:59:00;;;;;;;;;;;23.10;66.60;;;;;;1519183;76;1159;-57
2023/08/14 08:01:02;;;;;;;;;;;23.10;66.60;;;;;;1527782;76;742;-58
2023/08/14 08:03:04;;;;;;;;;;;23.10;66.70;;;;;;1570340;74;1940;-57
2023/08/14 08:05:06;;;;;;;;;;;23.10;66.70;;;;;;1562565;74;1516;-58
2023/08/14 08:07:08;;;;;;;;;;;23.10;66.70;;;;;;1553291;74;800;-57
2023/08/14 08:09:10;;;;;;;;;;;23.20;66.70;;;;;;1563141;74;1169;-57
2023/08/14 08:11:12;;;;;;;;;;;23.10;66.70;;;;;;1565684;75;784;-56
2023/08/14 08:13:14;;;;;;;;;;;23.10;66.80;;;;;;1569369;74;722;-57
2023/08/14 08:15:16;;;;;;;;;;;23.10;66.70;;;;;;1576209;74;745;-58
2023/08/14 08:17:18;;;;;;;;;;;23.10;66.80;;;;;;1565121;75;786;-59
2023/08/14 08:19:19;;;;;;;;;;;23.10;66.80;;;;;;1570466;74;1584;-58
2023/08/14 08:21:21;;;;;;;;;;;23.10;66.80;;;;;;1561470;74;854;-59
2023/08/14 08:23:23;;;;;;;;;;;23.10;66.80;;;;;;1571001;74;1938;-57
2023/08/14 08:25:25;;;;;;;;;;;23.10;66.80;;;;;;1560293;74;674;-58
2023/08/14 08:27:27;;;;;;;;;;;23.20;66.80;;;;;;1568865;75;737;-57
2023/08/14 08:29:29;;;;;;;;;;;23.10;66.80;;;;;;1562948;74;1144;-57
2023/08/14 08:31:31;;;;;;;;;;;23.10;66.80;;;;;;1566091;74;720;-59
2023/08/14 08:33:33;;;;;;;;;;;23.10;66.70;;;;;;1560253;75;1557;-58
2023/08/14 08:35:35;;;;;;;;;;;23.10;66.80;;;;;;1569536;74;742;-58
2023/08/14 08:37:37;;;;;;;;;;;23.10;66.70;;;;;;1570282;75;796;-57
2023/08/14 08:39:39;;;;;;;;;;;23.20;66.70;;;;;;1569666;75;1181;-57
2023/08/14 08:41:42;;;;;;;;;;;23.10;66.70;;;;;;1571293;74;762;-58
2023/08/14 08:43:44;;;;;;;;;;;23.20;66.70;;;;;;1569368;74;1950;-58
2023/08/14 08:45:51;;;;;;;;;;;23.10;66.70;;;;;;1568581;74;739;-57
2023/08/14 08:47:53;;;;;;;;;;;23.10;66.70;;;;;;1567781;75;1447;-57
2023/08/14 08:49:55;;;;;;;;;;;23.10;66.70;;;;;;1564314;74;1158;-56
2023/08/14 08:51:57;;;;;;;;;;;23.10;66.80;;;;;;1571481;75;731;-57
2023/08/14 08:53:59;;;;;;;;;;;23.10;66.70;;;;;;1562386;74;800;-58
2023/08/14 08:56:01;;;;;;;;;;;23.20;66.70;;;;;;1570892;74;767;-57
2023/08/14 08:58:03;;;;;;;;;;;23.10;66.70;;;;;;1566102;75;878;-58
2023/08/14 09:00:06;;;;;;;;;;;23.20;66.70;;;;;;1562415;75;1136;-59
2023/08/14 09:02:08;;;;;;;;;;;23.10;66.70;;;;;;1560915;74;1513;-59
2023/08/14 09:04:10;;;;;;;;;;;23.10;66.70;;;;;;1568487;74;1983;-57
2023/08/14 09:06:12;;;;;;;;;;;23.20;66.70;;;;;;1566789;74;961;-57
2023/08/14 09:08:14;;;;;;;;;;;23.20;66.70;;;;;;1558095;74;762;-57
2023/08/14 09:10:16;;;;;;;;;;;23.20;66.70;;;;;;1567172;75;1164;-58
2023/08/14 09:12:18;;;;;;;;;;;23.10;66.70;;;;;;1562422;74;797;-57
2023/08/14 09:14:21;;;;;;;;;;;23.10;66.80;;;;;;1568033;74;759;-59
2023/08/14 09:16:24;;;;;;;;;;;23.10;66.80;;;;;;1559182;74;1459;-57
2023/08/14 09:18:26;;;;;;;;;;;23.10;66.70;;;;;;1564959;75;790;-58
2023/08/14 09:20:28;;;;;;;;;;;23.20;66.90;;;;;;1570427;74;1075;-57
2023/08/14 09:22:29;;;;;;;;;;;23.10;66.80;;;;;;1561180;74;744;-58
2023/08/14 09:24:34;;;;;;;;;;;23.10;66.80;;;;;;1528383;76;1944;-57
2023/08/14 09:26:36;;;;;;;;;;;23.10;66.90;;;;;;1528513;76;756;-57
2023/08/14 09:28:38;;;;;;;;;;;23.10;67.00;;;;;;1569521;75;1141;-58
2023/08/14 09:30:41;;;;;;;;;;;23.10;67.10;;;;;;1570133;74;1637;-58
2023/08/14 09:32:42;;;;;;;;;;;23.20;67.10;;;;;;1564433;75;726;-57
2023/08/14 09:34:44;;;;;;;;;;;23.10;67.10;;;;;;1569752;75;741;-57
2023/08/14 09:36:47;;;;;;;;;;;23.10;67.10;;;;;;1569301;74;792;-56
2023/08/14 09:38:51;;;;;;;;;;;23.10;67.10;;;;;;1568486;74;1129;-57
2023/08/14 09:40:59;;;;;;;;;;;23.20;67.20;;;;;;1568058;75;755;-58
2023/08/14 09:43:01;;;;;;;;;;;23.20;67.40;;;;;;1562054;74;1291;-57
2023/08/14 09:45:03;;;;;;;;;;;23.20;67.40;;;;;;1569679;75;1920;-56
2023/08/14 09:47:05;;;;;;;;;;;23.20;67.30;;;;;;1566809;74;806;-57
2023/08/14 09:49:07;;;;;;;;;;;23.20;67.30;;;;;;1568050;75;1148;-57
2023/08/14 09:51:13;;;;;;;;;;;23.20;67.30;;;;;;1568564;75;730;-58
2023/08/14 09:53:15;;;;;;;;;;;23.20;67.40;;;;;;1563336;74;1768;-58
2023/08/14 09:55:17;;;;;;;;;;;23.20;67.40;;;;;;1567356;75;797;-57
2023/08/14 09:57:19;;;;;;;;;;;23.10;67.40;;;;;;1574371;74;1558;-58
2023/08/14 09:59:21;;;;;;;;;;;23.20;66.70;;;;;;1567334;74;1151;-56
2023/08/14 10:01:23;;;;;;;;;;;23.20;66.50;;;;;;1568194;74;803;-57
2023/08/14 10:03:25;;;;;;;;;;;23.10;66.50;;;;;;1566017;75;670;-58
2023/08/14 10:05:27;;;;;;;;;;;23.20;66.70;;;;;;1566286;74;1919;-56
2023/08/14 10:07:29;;;;;;;;;;;23.20;67.00;;;;;;1565903;74;753;-57
2023/08/14 10:09:31;;;;;;;;;;;23.20;67.30;;;;;;1565086;75;1135;-56
2023/08/14 10:11:33;;;;;;;;;;;23.20;67.30;;;;;;1570886;74;1422;-56
2023/08/14 10:13:36;;;;;;;;;;;23.20;67.50;;;;;;1562632;75;720;-57
2023/08/14 10:15:39;;;;;;;;;;;23.20;67.50;;;;;;1568890;75;732;-58
2023/08/14 10:17:43;;;;;;;;;;;23.10;67.40;;;;;;1567452;75;661;-56
2023/08/14 10:19:44;;;;;;;;;;;23.20;67.40;;;;;;1564574;74;2112;-59
2023/08/14 10:21:46;;;;;;;;;;;23.20;67.50;;;;;;1563000;75;791;-58
2023/08/14 10:23:48;;;;;;;;;;;23.20;67.60;;;;;;1568980;75;1954;-57
2023/08/14 10:25:50;;;;;;;;;;;23.20;67.60;;;;;;1557343;74;1440;-57
2023/08/14 10:27:53;;;;;;;;;;;23.20;67.60;;;;;;1564431;74;831;-56
2023/08/14 10:29:55;;;;;;;;;;;23.20;67.70;;;;;;1526673;78;1150;-57
2023/08/14 10:31:57;;;;;;;;;;;23.20;67.60;;;;;;1529340;77;722;-56
2023/08/14 10:33:59;;;;;;;;;;;23.20;67.60;;;;;;1566091;74;666;-57
2023/08/14 10:36:01;;;;;;;;;;;23.20;67.40;;;;;;1570513;74;1081;-56
2023/08/14 10:38:03;;;;;;;;;;;23.20;67.50;;;;;;1566876;74;789;-56
2023/08/14 10:40:21;;;;;;;;;;;23.20;67.60;;;;;;1567900;74;1483;-55
2023/08/14 10:42:23;;;;;;;;;;;23.20;67.60;;;;;;1566140;74;806;-58
2023/08/14 10:44:25;;;;;;;;;;;23.20;67.60;;;;;;1567486;74;1930;-57
2023/08/14 10:46:27;;;;;;;;;;;23.20;67.70;;;;;;1577916;75;1249;-57
2023/08/14 10:48:29;;;;;;;;;;;23.20;67.60;;;;;;1551789;76;771;-57
2023/08/14 10:50:30;;;;;;;;;;;23.20;67.80;;;;;;1582684;74;1131;-57
2023/08/14 10:52:32;;;;;;;;;;;23.20;67.60;;;;;;1569398;74;816;-56
2023/08/14 10:54:37;;;;;;;;;;;23.20;67.80;;;;;;1566417;74;1588;-56
2023/08/14 10:56:41;;;;;;;;;;;23.20;67.90;;;;;;1567010;75;766;-57
2023/08/14 10:58:50;;;;;;;;;;;23.20;67.80;;;;;;1569824;74;1121;-55
2023/08/14 11:00:52;;;;;;;;;;;23.20;68.00;;;;;;1564197;74;709;-57
2023/08/14 11:03:09;;;;;;;;;;;23.20;67.90;;;;;;1564023;74;712;-59
2023/08/14 11:05:16;;;;;;;;;;;23.20;68.10;;;;;;1569049;74;1936;-56
2023/08/14 11:07:17;;;;;;;;;;;23.20;67.90;;;;;;1564364;74;1642;-57
2023/08/14 11:09:20;;;;;;;;;;;23.20;67.90;;;;;;1560626;74;1150;-57
2023/08/14 11:11:22;;;;;;;;;;;23.20;68.00;;;;;;1565134;74;733;-58
2023/08/14 11:13:25;;;;;;;;;;;23.20;68.00;;;;;;1565343;74;725;-59
2023/08/14 11:15:29;;;;;;;;;;;23.20;67.90;;;;;;1552117;75;813;-57
2023/08/14 11:17:31;;;;;;;;;;;23.20;67.90;;;;;;1566018;74;808;-57
2023/08/14 11:19:36;;;;;;;;;;;23.30;68.00;;;;;;1571106;74;1169;-59
2023/08/14 11:21:38;;;;;;;;;;;23.20;67.90;;;;;;1567484;74;1509;-57
2023/08/14 11:23:40;;;;;;;;;;;23.20;67.80;;;;;;1565745;75;793;-58
2023/08/14 11:25:42;;;;;;;;;;;23.20;67.90;;;;;;1565096;74;1939;-57
2023/08/14 11:27:50;;;;;;;;;;;23.30;68.00;;;;;;1567597;74;807;-57
2023/08/14 11:29:52;;;;;;;;;;;23.20;67.90;;;;;;1571370;74;1084;-57
2023/08/14 11:31:54;;;;;;;;;;;23.30;67.90;;;;;;1568913;74;763;-59
2023/08/14 11:33:56;;;;;;;;;;;23.20;68.00;;;;;;1570260;75;731;-57
2023/08/14 11:35:58;;;;;;;;;;;23.20;67.90;;;;;;1559061;75;1544;-56
2023/08/14 11:38:00;;;;;;;;;;;23.30;68.00;;;;;;1571395;74;792;-57
2023/08/14 11:40:05;;;;;;;;;;;23.20;68.00;;;;;;1564899;74;1133;-56
2023/08/14 11:42:07;;;;;;;;;;;23.30;68.00;;;;;;1561057;74;705;-57
2023/08/14 11:44:09;;;;;;;;;;;23.30;68.10;;;;;;1561895;74;1024;-57
2023/08/14 11:46:11;;;;;;;;;;;23.30;68.00;;;;;;1557637;74;1956;-57
2023/08/14 11:48:13;;;;;;;;;;;23.30;68.00;;;;;;1570797;75;828;-58
2023/08/14 11:50:15;;;;;;;;;;;23.30;68.10;;;;;;1564028;74;1525;-58
2023/08/14 11:52:17;;;;;;;;;;;23.30;68.00;;;;;;1567943;74;792;-57
2023/08/14 11:54:19;;;;;;;;;;;23.20;67.90;;;;;;1551369;75;1097;-59
2023/08/14 11:56:21;;;;;;;;;;;23.30;67.80;;;;;;1550495;75;784;-57
2023/08/14 11:58:23;;;;;;;;;;;23.30;67.90;;;;;;1556505;76;719;-56
2023/08/14 12:00:25;;;;;;;;;;;23.30;68.00;;;;;;1544543;75;1106;-56
2023/08/14 12:02:27;;;;;;;;;;;23.30;68.10;;;;;;1548815;75;803;-58
2023/08/14 12:04:30;;;;;;;;;;;23.30;68.00;;;;;;1549265;76;1921;-56
2023/08/14 12:06:32;;;;;;;;;;;23.30;68.00;;;;;;1564119;75;731;-55
2023/08/14 12:08:34;;;;;;;;;;;23.30;68.10;;;;;;1554890;75;1099;-56